sensor_id;sensor_type;location;lat;lon;timestamp;pressure;altitude;pressure_sealevel;temperature;humidity
41306;BME280;27051;50.376;19.152;2023-12-14T00:02:02;96799.14;;;6.99;65.31
41306;BME280;27051;50.376;19.152;2023-12-14T00:04:49;96804.91;;;6.97;65.23
41306;BME280;27051;50.376;19.152;2023-12-14T00:07:28;96801.14;;;6.99;65.55
41306;BME280;27051;50.376;19.152;2023-12-14T00:09:55;96807.11;;;7.13;65.63
41306;BME280;27051;50.376;19.152;2023-12-14T00:12:22;96807.41;;;7.20;65.50
41306;BME280;27051;50.376;19.152;2023-12-14T00:14:52;96810.66;;;7.17;65.27
41306;BME280;27051;50.376;19.152;2023-12-14T00:17:22;96816.92;;;7.14;65.22
41306;BME280;27051;50.376;19.152;2023-12-14T00:22:40;96826.92;;;7.17;65.48
41306;BME280;27051;50.376;19.152;2023-12-14T00:25:10;96830.88;;;7.14;65.36
41306;BME280;27051;50.376;19.152;2023-12-14T00:27:37;96830.28;;;7.14;65.37
41306;BME280;27051;50.376;19.152;2023-12-14T00:30:24;96842.73;;;7.17;65.40
41306;BME280;27051;50.376;19.152;2023-12-14T00:32:54;96847.14;;;7.17;65.30
41306;BME280;27051;50.376;19.152;2023-12-14T00:35:42;96850.95;;;7.14;65.31
41306;BME280;27051;50.376;19.152;2023-12-14T00:38:10;96857.05;;;7.13;65.30
41306;BME280;27051;50.376;19.152;2023-12-14T00:40:39;96860.24;;;7.13;65.35
41306;BME280;27051;50.376;19.152;2023-12-14T00:43:07;96863.48;;;7.11;65.19
41306;BME280;27051;50.376;19.152;2023-12-14T00:45:34;96868.66;;;7.07;65.34
41306;BME280;27051;50.376;19.152;2023-12-14T00:48:04;96870.92;;;7.13;65.46
41306;BME280;27051;50.376;19.152;2023-12-14T00:50:42;96868.96;;;7.14;65.38
41306;BME280;27051;50.376;19.152;2023-12-14T00:56:00;96876.79;;;7.12;65.23
41306;BME280;27051;50.376;19.152;2023-12-14T00:58:35;96879.73;;;7.10;65.43
41306;BME280;27051;50.376;19.152;2023-12-14T01:01:32;96876.76;;;7.07;65.27
41306;BME280;27051;50.376;19.152;2023-12-14T01:04:30;96878.19;;;7.00;65.22
41306;BME280;27051;50.376;19.152;2023-12-14T01:06:59;96876.81;;;6.94;65.32
41306;BME280;27051;50.376;19.152;2023-12-14T01:09:26;96883.91;;;6.91;65.56
41306;BME280;27051;50.376;19.152;2023-12-14T01:11:59;96886.75;;;6.95;65.41
41306;BME280;27051;50.376;19.152;2023-12-14T01:17:04;96887.89;;;7.04;65.69
41306;BME280;27051;50.376;19.152;2023-12-14T01:20:12;96891.89;;;7.11;65.65
41306;BME280;27051;50.376;19.152;2023-12-14T01:22:38;96892.30;;;7.10;65.53
41306;BME280;27051;50.376;19.152;2023-12-14T01:25:06;96896.54;;;7.11;65.45
41306;BME280;27051;50.376;19.152;2023-12-14T01:27:33;96895.46;;;7.14;65.61
41306;BME280;27051;50.376;19.152;2023-12-14T01:30:12;96892.42;;;7.14;65.51
41306;BME280;27051;50.376;19.152;2023-12-14T01:35:34;96888.22;;;7.02;65.39
41306;BME280;27051;50.376;19.152;2023-12-14T01:38:02;96889.08;;;6.99;65.61
41306;BME280;27051;50.376;19.152;2023-12-14T01:40:35;96892.75;;;7.00;65.70
41306;BME280;27051;50.376;19.152;2023-12-14T01:43:16;96891.38;;;7.03;65.65
41306;BME280;27051;50.376;19.152;2023-12-14T01:46:15;96889.99;;;7.06;65.69
41306;BME280;27051;50.376;19.152;2023-12-14T01:48:43;96887.20;;;7.10;65.58
41306;BME280;27051;50.376;19.152;2023-12-14T01:51:31;96889.02;;;7.01;65.37
41306;BME280;27051;50.376;19.152;2023-12-14T01:53:58;96888.80;;;6.93;65.64
41306;BME280;27051;50.376;19.152;2023-12-14T01:56:30;96889.35;;;6.98;65.76
41306;BME280;27051;50.376;19.152;2023-12-14T01:59:32;96891.30;;;7.03;65.71
41306;BME280;27051;50.376;19.152;2023-12-14T02:02:20;96892.98;;;7.06;65.68
41306;BME280;27051;50.376;19.152;2023-12-14T02:04:46;96889.35;;;7.05;65.61
41306;BME280;27051;50.376;19.152;2023-12-14T02:07:14;96891.30;;;7.05;65.66
41306;BME280;27051;50.376;19.152;2023-12-14T02:10:01;96886.45;;;7.01;65.53
41306;BME280;27051;50.376;19.152;2023-12-14T02:12:50;96887.11;;;7.01;65.62
41306;BME280;27051;50.376;19.152;2023-12-14T02:15:28;96889.59;;;6.99;65.59
41306;BME280;27051;50.376;19.152;2023-12-14T02:18:37;96889.98;;;6.99;65.68
41306;BME280;27051;50.376;19.152;2023-12-14T02:21:03;96886.47;;;6.99;65.59
41306;BME280;27051;50.376;19.152;2023-12-14T02:23:41;96885.91;;;7.01;65.72
41306;BME280;27051;50.376;19.152;2023-12-14T02:26:11;96886.90;;;6.98;65.64
41306;BME280;27051;50.376;19.152;2023-12-14T02:28:39;96889.24;;;6.97;65.71
41306;BME280;27051;50.376;19.152;2023-12-14T02:31:08;96889.95;;;6.97;65.72
41306;BME280;27051;50.376;19.152;2023-12-14T02:36:16;96889.70;;;6.97;65.60
41306;BME280;27051;50.376;19.152;2023-12-14T02:38:53;96892.23;;;6.94;65.71
41306;BME280;27051;50.376;19.152;2023-12-14T02:44:28;96897.77;;;6.96;65.76
41306;BME280;27051;50.376;19.152;2023-12-14T02:47:16;96902.51;;;6.96;65.55
41306;BME280;27051;50.376;19.152;2023-12-14T02:50:05;96910.33;;;6.95;65.81
41306;BME280;27051;50.376;19.152;2023-12-14T02:55:42;96911.60;;;7.00;65.90
41306;BME280;27051;50.376;19.152;2023-12-14T02:58:30;96915.88;;;6.97;65.82
41306;BME280;27051;50.376;19.152;2023-12-14T03:00:57;96916.48;;;6.97;65.88
41306;BME280;27051;50.376;19.152;2023-12-14T03:03:24;96919.09;;;6.94;65.72
41306;BME280;27051;50.376;19.152;2023-12-14T03:05:51;96917.17;;;6.91;65.76
41306;BME280;27051;50.376;19.152;2023-12-14T03:08:30;96918.23;;;6.90;65.72
41306;BME280;27051;50.376;19.152;2023-12-14T03:11:23;96921.38;;;6.93;65.94
41306;BME280;27051;50.376;19.152;2023-12-14T03:13:50;96923.77;;;6.92;65.91
41306;BME280;27051;50.376;19.152;2023-12-14T03:16:29;96928.21;;;6.92;65.90
41306;BME280;27051;50.376;19.152;2023-12-14T03:21:55;96938.33;;;6.82;65.77
41306;BME280;27051;50.376;19.152;2023-12-14T03:24:21;96941.18;;;6.71;65.82
41306;BME280;27051;50.376;19.152;2023-12-14T03:26:51;96944.23;;;6.63;65.99
41306;BME280;27051;50.376;19.152;2023-12-14T03:29:18;96945.60;;;6.60;65.98
41306;BME280;27051;50.376;19.152;2023-12-14T03:31:45;96946.77;;;6.69;66.37
41306;BME280;27051;50.376;19.152;2023-12-14T03:34:16;96954.28;;;6.80;66.43
41306;BME280;27051;50.376;19.152;2023-12-14T03:36:44;96960.21;;;6.82;66.20
41306;BME280;27051;50.376;19.152;2023-12-14T03:39:11;96964.26;;;6.85;66.23
41306;BME280;27051;50.376;19.152;2023-12-14T03:41:38;96967.22;;;6.87;66.25
41306;BME280;27051;50.376;19.152;2023-12-14T03:44:05;96971.13;;;6.88;66.20
41306;BME280;27051;50.376;19.152;2023-12-14T03:46:32;96975.55;;;6.90;66.16
41306;BME280;27051;50.376;19.152;2023-12-14T03:49:00;96978.14;;;6.87;66.05
41306;BME280;27051;50.376;19.152;2023-12-14T03:51:50;96977.83;;;6.78;66.08
41306;BME280;27051;50.376;19.152;2023-12-14T03:54:20;96979.39;;;6.77;66.29
41306;BME280;27051;50.376;19.152;2023-12-14T03:56:47;96984.00;;;6.75;66.36
41306;BME280;27051;50.376;19.152;2023-12-14T03:59:23;96986.89;;;6.81;66.55
41306;BME280;27051;50.376;19.152;2023-12-14T04:02:10;96990.48;;;6.89;66.45
41306;BME280;27051;50.376;19.152;2023-12-14T04:04:37;96996.67;;;6.84;66.16
41306;BME280;27051;50.376;19.152;2023-12-14T04:07:04;96998.05;;;6.79;66.32
41306;BME280;27051;50.376;19.152;2023-12-14T04:09:39;97002.11;;;6.82;66.30
41306;BME280;27051;50.376;19.152;2023-12-14T04:12:16;97005.91;;;6.84;66.41
41306;BME280;27051;50.376;19.152;2023-12-14T04:14:43;97008.92;;;6.91;66.41
41306;BME280;27051;50.376;19.152;2023-12-14T04:17:11;97012.44;;;6.94;66.28
41306;BME280;27051;50.376;19.152;2023-12-14T04:19:50;97018.30;;;6.88;66.14
41306;BME280;27051;50.376;19.152;2023-12-14T04:22:26;97021.35;;;6.88;66.34
41306;BME280;27051;50.376;19.152;2023-12-14T04:25:11;97027.54;;;6.91;66.36
41306;BME280;27051;50.376;19.152;2023-12-14T04:27:46;97031.35;;;6.88;66.21
41306;BME280;27051;50.376;19.152;2023-12-14T04:30:18;97035.46;;;6.88;66.38
41306;BME280;27051;50.376;19.152;2023-12-14T04:32:48;97039.16;;;6.92;66.34
41306;BME280;27051;50.376;19.152;2023-12-14T04:37:55;97043.05;;;7.00;66.33
41306;BME280;27051;50.376;19.152;2023-12-14T04:40:32;97046.98;;;7.01;66.27
41306;BME280;27051;50.376;19.152;2023-12-14T04:45:52;97053.15;;;6.98;66.15
41306;BME280;27051;50.376;19.152;2023-12-14T04:48:39;97058.19;;;6.98;66.29
41306;BME280;27051;50.376;19.152;2023-12-14T04:51:11;97057.79;;;7.03;66.38
41306;BME280;27051;50.376;19.152;2023-12-14T04:53:38;97058.52;;;7.08;66.38
41306;BME280;27051;50.376;19.152;2023-12-14T04:56:18;97061.82;;;7.11;66.24
41306;BME280;27051;50.376;19.152;2023-12-14T04:58:50;97063.05;;;7.14;66.28
41306;BME280;27051;50.376;19.152;2023-12-14T05:01:46;97065.88;;;7.18;66.24
41306;BME280;27051;50.376;19.152;2023-12-14T05:04:15;97066.67;;;7.13;66.15
41306;BME280;27051;50.376;19.152;2023-12-14T05:06:52;97074.23;;;7.12;66.16
41306;BME280;27051;50.376;19.152;2023-12-14T05:09:21;97079.98;;;7.14;66.25
41306;BME280;27051;50.376;19.152;2023-12-14T05:11:49;97085.98;;;7.15;66.26
41306;BME280;27051;50.376;19.152;2023-12-14T05:14:16;97088.23;;;7.20;66.25
41306;BME280;27051;50.376;19.152;2023-12-14T05:16:52;97091.39;;;7.21;66.04
41306;BME280;27051;50.376;19.152;2023-12-14T05:19:27;97092.69;;;7.21;66.08
41306;BME280;27051;50.376;19.152;2023-12-14T05:21:57;97097.30;;;7.14;66.06
41306;BME280;27051;50.376;19.152;2023-12-14T05:24:31;97101.79;;;7.13;66.04
41306;BME280;27051;50.376;19.152;2023-12-14T05:26:58;97098.80;;;7.07;66.10
41306;BME280;27051;50.376;19.152;2023-12-14T05:29:35;97106.38;;;6.99;66.10
41306;BME280;27051;50.376;19.152;2023-12-14T05:37:50;97115.49;;;6.90;66.08
41306;BME280;27051;50.376;19.152;2023-12-14T05:40:27;97121.23;;;6.88;66.42
41306;BME280;27051;50.376;19.152;2023-12-14T05:42:57;97123.16;;;6.94;66.48
41306;BME280;27051;50.376;19.152;2023-12-14T05:45:33;97133.77;;;6.94;66.33
41306;BME280;27051;50.376;19.152;2023-12-14T05:48:01;97130.82;;;7.00;66.34
41306;BME280;27051;50.376;19.152;2023-12-14T05:50:28;97133.60;;;7.01;66.35
41306;BME280;27051;50.376;19.152;2023-12-14T05:53:05;97136.97;;;6.99;66.13
41306;BME280;27051;50.376;19.152;2023-12-14T05:55:33;97142.88;;;6.92;66.15
41306;BME280;27051;50.376;19.152;2023-12-14T05:58:02;97147.45;;;6.84;66.24
41306;BME280;27051;50.376;19.152;2023-12-14T06:00:29;97146.95;;;6.83;66.39
41306;BME280;27051;50.376;19.152;2023-12-14T06:02:56;97153.02;;;6.84;66.50
41306;BME280;27051;50.376;19.152;2023-12-14T06:05:24;97158.83;;;6.89;66.59
41306;BME280;27051;50.376;19.152;2023-12-14T06:07:51;97157.64;;;6.95;66.49
41306;BME280;27051;50.376;19.152;2023-12-14T06:10:18;97159.98;;;6.95;66.32
41306;BME280;27051;50.376;19.152;2023-12-14T06:12:51;97161.30;;;6.98;66.47
41306;BME280;27051;50.376;19.152;2023-12-14T06:15:18;97163.10;;;7.00;66.40
41306;BME280;27051;50.376;19.152;2023-12-14T06:18:05;97163.86;;;7.02;66.35
41306;BME280;27051;50.376;19.152;2023-12-14T06:20:36;97167.29;;;7.02;66.44
41306;BME280;27051;50.376;19.152;2023-12-14T06:23:23;97173.91;;;7.04;66.25
41306;BME280;27051;50.376;19.152;2023-12-14T06:25:51;97177.39;;;7.00;66.40
41306;BME280;27051;50.376;19.152;2023-12-14T06:28:20;97180.84;;;7.06;66.41
41306;BME280;27051;50.376;19.152;2023-12-14T06:30:47;97187.93;;;7.06;66.42
41306;BME280;27051;50.376;19.152;2023-12-14T06:33:19;97190.78;;;7.04;66.30
41306;BME280;27051;50.376;19.152;2023-12-14T06:35:58;97193.85;;;7.05;66.48
41306;BME280;27051;50.376;19.152;2023-12-14T06:38:25;97196.97;;;7.07;66.45
41306;BME280;27051;50.376;19.152;2023-12-14T06:40:52;97201.96;;;7.03;66.27
41306;BME280;27051;50.376;19.152;2023-12-14T06:43:43;97207.67;;;6.97;66.32
41306;BME280;27051;50.376;19.152;2023-12-14T06:46:09;97215.82;;;7.01;66.47
41306;BME280;27051;50.376;19.152;2023-12-14T06:48:46;97217.86;;;7.08;66.53
41306;BME280;27051;50.376;19.152;2023-12-14T06:51:24;97219.98;;;7.13;66.41
41306;BME280;27051;50.376;19.152;2023-12-14T06:53:54;97223.52;;;7.19;66.39
41306;BME280;27051;50.376;19.152;2023-12-14T06:56:36;97224.64;;;7.21;66.37
41306;BME280;27051;50.376;19.152;2023-12-14T06:59:03;97224.14;;;7.23;66.26
41306;BME280;27051;50.376;19.152;2023-12-14T07:01:33;97226.34;;;7.16;66.17
41306;BME280;27051;50.376;19.152;2023-12-14T07:04:01;97229.11;;;7.17;66.40
41306;BME280;27051;50.376;19.152;2023-12-14T07:06:54;97232.70;;;7.20;66.30
41306;BME280;27051;50.376;19.152;2023-12-14T07:09:21;97236.77;;;7.18;66.33
41306;BME280;27051;50.376;19.152;2023-12-14T07:11:48;97238.28;;;7.17;66.30
41306;BME280;27051;50.376;19.152;2023-12-14T07:14:21;97242.80;;;7.21;66.34
41306;BME280;27051;50.376;19.152;2023-12-14T07:16:49;97241.36;;;7.21;66.35
41306;BME280;27051;50.376;19.152;2023-12-14T07:19:16;97247.02;;;7.24;66.36
41306;BME280;27051;50.376;19.152;2023-12-14T07:21:52;97248.23;;;7.21;66.31
41306;BME280;27051;50.376;19.152;2023-12-14T07:24:22;97255.23;;;7.28;66.34
41306;BME280;27051;50.376;19.152;2023-12-14T07:27:11;97255.96;;;7.30;66.35
41306;BME280;27051;50.376;19.152;2023-12-14T07:32:37;97263.09;;;7.46;66.40
41306;BME280;27051;50.376;19.152;2023-12-14T07:35:07;97264.26;;;7.52;66.30
41306;BME280;27051;50.376;19.152;2023-12-14T07:37:45;97268.14;;;7.57;66.27
41306;BME280;27051;50.376;19.152;2023-12-14T07:40:15;97276.00;;;7.57;66.15
41306;BME280;27051;50.376;19.152;2023-12-14T07:43:04;97275.48;;;7.52;65.99
41306;BME280;27051;50.376;19.152;2023-12-14T07:45:33;97283.42;;;7.55;66.20
41306;BME280;27051;50.376;19.152;2023-12-14T07:48:17;97292.03;;;7.53;66.04
41306;BME280;27051;50.376;19.152;2023-12-14T07:53:21;97305.38;;;7.53;66.22
41306;BME280;27051;50.376;19.152;2023-12-14T07:55:49;97310.96;;;7.53;66.07
41306;BME280;27051;50.376;19.152;2023-12-14T07:58:16;97318.41;;;7.52;66.10
41306;BME280;27051;50.376;19.152;2023-12-14T08:03:52;97323.42;;;7.49;66.12
41306;BME280;27051;50.376;19.152;2023-12-14T08:06:18;97325.79;;;7.51;66.18
41306;BME280;27051;50.376;19.152;2023-12-14T08:08:55;97325.55;;;7.53;66.12
41306;BME280;27051;50.376;19.152;2023-12-14T08:11:25;97325.80;;;7.60;66.27
41306;BME280;27051;50.376;19.152;2023-12-14T08:13:52;97330.38;;;7.59;65.95
41306;BME280;27051;50.376;19.152;2023-12-14T08:16:20;97335.13;;;7.60;66.03
41306;BME280;27051;50.376;19.152;2023-12-14T08:18:57;97340.44;;;7.64;66.15
41306;BME280;27051;50.376;19.152;2023-12-14T08:21:24;97341.05;;;7.69;66.04
41306;BME280;27051;50.376;19.152;2023-12-14T08:23:59;97339.42;;;7.60;65.72
41306;BME280;27051;50.376;19.152;2023-12-14T08:26:49;97347.16;;;7.58;66.16
41306;BME280;27051;50.376;19.152;2023-12-14T08:29:36;97351.38;;;7.64;66.16
41306;BME280;27051;50.376;19.152;2023-12-14T08:32:24;97355.21;;;7.62;65.94
41306;BME280;27051;50.376;19.152;2023-12-14T08:34:51;97355.40;;;7.63;66.30
41306;BME280;27051;50.376;19.152;2023-12-14T08:37:18;97357.41;;;7.72;66.26
41306;BME280;27051;50.376;19.152;2023-12-14T08:39:46;97359.70;;;7.74;66.08
41306;BME280;27051;50.376;19.152;2023-12-14T08:42:15;97364.67;;;7.72;66.00
41306;BME280;27051;50.376;19.152;2023-12-14T08:44:45;97367.60;;;7.75;66.03
41306;BME280;27051;50.376;19.152;2023-12-14T08:47:13;97372.46;;;7.80;66.14
41306;BME280;27051;50.376;19.152;2023-12-14T08:49:40;97372.48;;;7.83;66.10
41306;BME280;27051;50.376;19.152;2023-12-14T08:52:19;97380.94;;;7.85;65.94
41306;BME280;27051;50.376;19.152;2023-12-14T08:55:07;97385.42;;;7.76;65.82
41306;BME280;27051;50.376;19.152;2023-12-14T08:57:35;97389.16;;;7.75;66.00
41306;BME280;27051;50.376;19.152;2023-12-14T09:00:03;97395.44;;;7.84;66.10
41306;BME280;27051;50.376;19.152;2023-12-14T09:02:34;97402.58;;;7.85;65.83
41306;BME280;27051;50.376;19.152;2023-12-14T09:05:05;97404.46;;;7.84;66.06
41306;BME280;27051;50.376;19.152;2023-12-14T09:10:31;97406.58;;;7.93;66.10
41306;BME280;27051;50.376;19.152;2023-12-14T09:12:57;97412.31;;;8.01;65.99
41306;BME280;27051;50.376;19.152;2023-12-14T09:15:24;97415.77;;;8.04;65.91
41306;BME280;27051;50.376;19.152;2023-12-14T09:17:51;97420.63;;;8.00;65.72
41306;BME280;27051;50.376;19.152;2023-12-14T09:20:21;97417.25;;;8.00;65.83
41306;BME280;27051;50.376;19.152;2023-12-14T09:22:49;97425.39;;;8.04;65.87
41306;BME280;27051;50.376;19.152;2023-12-14T09:25:16;97430.27;;;8.03;65.81
41306;BME280;27051;50.376;19.152;2023-12-14T09:28:05;97432.70;;;8.00;65.60
41306;BME280;27051;50.376;19.152;2023-12-14T09:30:52;97432.21;;;7.92;65.47
41306;BME280;27051;50.376;19.152;2023-12-14T09:33:25;97437.42;;;7.84;65.47
41306;BME280;27051;50.376;19.152;2023-12-14T09:35:52;97437.57;;;7.81;65.74
41306;BME280;27051;50.376;19.152;2023-12-14T09:38:19;97436.61;;;7.80;65.68
41306;BME280;27051;50.376;19.152;2023-12-14T09:40:46;97436.78;;;7.80;65.93
41306;BME280;27051;50.376;19.152;2023-12-14T09:43:16;97440.48;;;7.85;65.75
41306;BME280;27051;50.376;19.152;2023-12-14T09:46:04;97439.48;;;7.92;66.01
41306;BME280;27051;50.376;19.152;2023-12-14T09:48:32;97433.86;;;8.03;65.84
41306;BME280;27051;50.376;19.152;2023-12-14T09:51:10;97441.09;;;8.11;65.73
41306;BME280;27051;50.376;19.152;2023-12-14T09:53:42;97443.34;;;8.17;65.79
41306;BME280;27051;50.376;19.152;2023-12-14T09:56:11;97446.30;;;8.19;65.70
41306;BME280;27051;50.376;19.152;2023-12-14T09:59:01;97446.80;;;8.12;65.50
41306;BME280;27051;50.376;19.152;2023-12-14T10:01:31;97455.74;;;8.10;65.63
41306;BME280;27051;50.376;19.152;2023-12-14T10:04:10;97456.23;;;8.08;65.48
41306;BME280;27051;50.376;19.152;2023-12-14T10:07:07;97457.74;;;8.02;65.43
41306;BME280;27051;50.376;19.152;2023-12-14T10:10:09;97461.21;;;7.95;65.45
41306;BME280;27051;50.376;19.152;2023-12-14T10:12:55;97461.34;;;7.97;65.73
41306;BME280;27051;50.376;19.152;2023-12-14T10:15:44;97467.19;;;8.05;65.70
41306;BME280;27051;50.376;19.152;2023-12-14T10:18:21;97468.77;;;8.15;65.72
41306;BME280;27051;50.376;19.152;2023-12-14T10:21:00;97466.65;;;8.19;65.61
41306;BME280;27051;50.376;19.152;2023-12-14T10:24:10;97468.59;;;8.22;65.58
41306;BME280;27051;50.376;19.152;2023-12-14T10:26:44;97470.10;;;8.24;65.56
41306;BME280;27051;50.376;19.152;2023-12-14T10:29:20;97474.32;;;8.14;65.31
41306;BME280;27051;50.376;19.152;2023-12-14T10:31:48;97476.60;;;8.09;65.40
41306;BME280;27051;50.376;19.152;2023-12-14T10:34:19;97477.48;;;8.10;65.59
41306;BME280;27051;50.376;19.152;2023-12-14T10:36:46;97482.23;;;8.10;65.43
41306;BME280;27051;50.376;19.152;2023-12-14T10:39:17;97480.58;;;8.06;65.43
41306;BME280;27051;50.376;19.152;2023-12-14T10:42:08;97482.49;;;8.03;65.52
41306;BME280;27051;50.376;19.152;2023-12-14T10:44:36;97482.11;;;8.06;65.71
41306;BME280;27051;50.376;19.152;2023-12-14T10:47:06;97484.35;;;8.07;65.85
41306;BME280;27051;50.376;19.152;2023-12-14T10:49:38;97484.83;;;8.11;65.72
41306;BME280;27051;50.376;19.152;2023-12-14T10:52:05;97490.97;;;8.06;65.58
41306;BME280;27051;50.376;19.152;2023-12-14T10:54:43;97495.38;;;8.05;65.81
41306;BME280;27051;50.376;19.152;2023-12-14T10:57:52;97499.50;;;8.02;65.42
41306;BME280;27051;50.376;19.152;2023-12-14T11:00:42;97497.89;;;7.95;65.64
41306;BME280;27051;50.376;19.152;2023-12-14T11:03:13;97502.77;;;7.99;65.75
41306;BME280;27051;50.376;19.152;2023-12-14T11:05:40;97505.65;;;8.08;65.74
41306;BME280;27051;50.376;19.152;2023-12-14T11:08:21;97504.75;;;8.12;65.56
41306;BME280;27051;50.376;19.152;2023-12-14T11:11:03;97516.06;;;8.06;65.31
41306;BME280;27051;50.376;19.152;2023-12-14T11:13:31;97521.16;;;7.97;65.26
41306;BME280;27051;50.376;19.152;2023-12-14T11:16:00;97525.98;;;7.91;65.49
41306;BME280;27051;50.376;19.152;2023-12-14T11:18:31;97524.88;;;7.92;65.62
41306;BME280;27051;50.376;19.152;2023-12-14T11:21:02;97527.30;;;7.94;65.57
41306;BME280;27051;50.376;19.152;2023-12-14T11:23:33;97533.45;;;7.93;65.53
41306;BME280;27051;50.376;19.152;2023-12-14T11:26:06;97534.80;;;7.94;65.80
41306;BME280;27051;50.376;19.152;2023-12-14T11:28:53;97536.02;;;7.94;65.64
41306;BME280;27051;50.376;19.152;2023-12-14T11:31:21;97536.09;;;7.98;65.68
41306;BME280;27051;50.376;19.152;2023-12-14T11:33:51;97537.05;;;7.97;65.62
41306;BME280;27051;50.376;19.152;2023-12-14T11:36:39;97535.73;;;7.94;65.50
41306;BME280;27051;50.376;19.152;2023-12-14T11:39:07;97538.85;;;7.94;65.57
41306;BME280;27051;50.376;19.152;2023-12-14T11:41:35;97538.56;;;7.87;65.54
41306;BME280;27051;50.376;19.152;2023-12-14T11:44:02;97540.17;;;7.85;65.50
41306;BME280;27051;50.376;19.152;2023-12-14T11:46:29;97541.79;;;7.85;65.70
41306;BME280;27051;50.376;19.152;2023-12-14T11:48:57;97543.52;;;7.84;65.56
41306;BME280;27051;50.376;19.152;2023-12-14T11:52:27;97546.14;;;7.85;65.56
41306;BME280;27051;50.376;19.152;2023-12-14T11:54:34;97547.98;;;7.81;65.45
41306;BME280;27051;50.376;19.152;2023-12-14T11:57:02;97549.08;;;7.79;65.54
41306;BME280;27051;50.376;19.152;2023-12-14T12:02:23;97542.25;;;7.97;65.92
41306;BME280;27051;50.376;19.152;2023-12-14T12:04:50;97543.64;;;8.08;65.78
41306;BME280;27051;50.376;19.152;2023-12-14T12:07:17;97549.70;;;8.16;65.70
41306;BME280;27051;50.376;19.152;2023-12-14T12:10:05;97548.75;;;8.15;65.32
41306;BME280;27051;50.376;19.152;2023-12-14T12:12:33;97550.38;;;8.21;65.55
41306;BME280;27051;50.376;19.152;2023-12-14T12:15:00;97557.48;;;8.23;65.30
41306;BME280;27051;50.376;19.152;2023-12-14T12:17:27;97555.99;;;8.19;65.41
41306;BME280;27051;50.376;19.152;2023-12-14T12:19:54;97563.77;;;8.21;65.46
41306;BME280;27051;50.376;19.152;2023-12-14T12:22:30;97568.34;;;8.22;65.39
41306;BME280;27051;50.376;19.152;2023-12-14T12:24:58;97572.59;;;8.19;65.47
41306;BME280;27051;50.376;19.152;2023-12-14T12:27:25;97572.30;;;8.15;65.42
41306;BME280;27051;50.376;19.152;2023-12-14T12:29:52;97577.83;;;8.03;65.31
41306;BME280;27051;50.376;19.152;2023-12-14T12:32:19;97575.19;;;7.97;65.59
41306;BME280;27051;50.376;19.152;2023-12-14T12:34:46;97576.94;;;7.99;65.61
41306;BME280;27051;50.376;19.152;2023-12-14T12:37:25;97579.58;;;8.00;65.75
41306;BME280;27051;50.376;19.152;2023-12-14T12:40:02;97576.65;;;8.04;65.70
41306;BME280;27051;50.376;19.152;2023-12-14T12:42:31;97577.10;;;7.99;65.42
41306;BME280;27051;50.376;19.152;2023-12-14T12:44:58;97584.64;;;8.01;65.60
41306;BME280;27051;50.376;19.152;2023-12-14T12:47:26;97592.73;;;8.03;65.60
41306;BME280;27051;50.376;19.152;2023-12-14T12:50:03;97596.95;;;7.91;65.31
41306;BME280;27051;50.376;19.152;2023-12-14T12:52:31;97599.84;;;7.86;65.58
41306;BME280;27051;50.376;19.152;2023-12-14T12:54:58;97598.98;;;7.83;65.52
41306;BME280;27051;50.376;19.152;2023-12-14T12:57:25;97604.04;;;7.85;65.68
41306;BME280;27051;50.376;19.152;2023-12-14T12:59:53;97603.29;;;7.91;65.62
41306;BME280;27051;50.376;19.152;2023-12-14T13:02:29;97613.76;;;7.93;65.68
41306;BME280;27051;50.376;19.152;2023-12-14T13:05:25;97618.52;;;7.96;65.48
41306;BME280;27051;50.376;19.152;2023-12-14T13:07:52;97621.63;;;7.93;65.52
41306;BME280;27051;50.376;19.152;2023-12-14T13:10:20;97623.67;;;7.90;65.60
41306;BME280;27051;50.376;19.152;2023-12-14T13:12:47;97627.80;;;7.93;65.56
41306;BME280;27051;50.376;19.152;2023-12-14T13:15:14;97629.54;;;7.85;65.61
41306;BME280;27051;50.376;19.152;2023-12-14T13:17:41;97630.84;;;7.80;65.51
41306;BME280;27051;50.376;19.152;2023-12-14T13:20:08;97631.11;;;7.75;65.57
41306;BME280;27051;50.376;19.152;2023-12-14T13:22:38;97634.37;;;7.71;65.69
41306;BME280;27051;50.376;19.152;2023-12-14T13:25:15;97640.73;;;7.65;65.53
41306;BME280;27051;50.376;19.152;2023-12-14T13:27:42;97650.27;;;7.66;65.79
41306;BME280;27051;50.376;19.152;2023-12-14T13:30:14;97656.46;;;7.61;65.57
41306;BME280;27051;50.376;19.152;2023-12-14T13:32:41;97661.48;;;7.53;65.69
41306;BME280;27051;50.376;19.152;2023-12-14T13:35:08;97664.46;;;7.47;65.73
41306;BME280;27051;50.376;19.152;2023-12-14T13:37:35;97672.55;;;7.51;65.95
41306;BME280;27051;50.376;19.152;2023-12-14T13:40:03;97677.81;;;7.52;65.89
41306;BME280;27051;50.376;19.152;2023-12-14T13:42:30;97681.61;;;7.56;65.90
41306;BME280;27051;50.376;19.152;2023-12-14T13:45:40;97685.48;;;7.57;65.82
41306;BME280;27051;50.376;19.152;2023-12-14T13:53:49;97702.28;;;7.42;65.50
41306;BME280;27051;50.376;19.152;2023-12-14T13:56:16;97712.38;;;7.32;65.60
41306;BME280;27051;50.376;19.152;2023-12-14T13:58:43;97715.58;;;7.24;65.79
41306;BME280;27051;50.376;19.152;2023-12-14T14:01:32;97720.38;;;7.15;65.66
41306;BME280;27051;50.376;19.152;2023-12-14T14:04:29;97728.61;;;7.10;65.98
41306;BME280;27051;50.376;19.152;2023-12-14T14:07:27;97730.66;;;7.10;66.02
41306;BME280;27051;50.376;19.152;2023-12-14T14:09:53;97733.50;;;7.08;66.10
41306;BME280;27051;50.376;19.152;2023-12-14T14:15:03;97744.35;;;7.05;66.09
41306;BME280;27051;50.376;19.152;2023-12-14T14:17:34;97744.91;;;7.07;66.25
41306;BME280;27051;50.376;19.152;2023-12-14T14:20:01;97739.88;;;7.06;66.20
41306;BME280;27051;50.376;19.152;2023-12-14T14:22:28;97743.52;;;7.05;66.31
41306;BME280;27051;50.376;19.152;2023-12-14T14:27:34;97748.86;;;6.95;66.33
41306;BME280;27051;50.376;19.152;2023-12-14T14:32:39;97758.06;;;6.96;66.34
41306;BME280;27051;50.376;19.152;2023-12-14T14:35:16;97762.96;;;6.98;66.33
41306;BME280;27051;50.376;19.152;2023-12-14T14:37:43;97766.61;;;7.02;66.52